createdAt,value
2023-04-30T00:00:35.856Z,19.00
2023-04-30T00:03:05.429Z,19.00
2023-04-30T00:05:33.418Z,19.00
2023-04-30T00:08:01.304Z,19.00
2023-04-30T00:10:29.289Z,19.00
2023-04-30T00:12:57.256Z,19.00
2023-04-30T00:15:25.417Z,19.00
2023-04-30T00:17:53.451Z,19.00
2023-04-30T00:20:22.786Z,19.00
2023-04-30T00:22:50.735Z,19.00
2023-04-30T00:25:18.807Z,19.00
2023-04-30T00:27:46.672Z,18.90
2023-04-30T00:30:14.598Z,18.90
2023-04-30T00:32:42.680Z,18.90
2023-04-30T00:35:11.281Z,18.90
2023-04-30T00:37:40.767Z,18.90
2023-04-30T00:40:11.885Z,18.90
2023-04-30T00:42:39.826Z,18.90
2023-04-30T00:45:09.227Z,18.90
2023-04-30T00:47:37.185Z,18.90
2023-04-30T00:50:05.665Z,18.90
2023-04-30T00:52:33.922Z,18.90
2023-04-30T00:55:03.210Z,18.90
2023-04-30T00:57:31.183Z,18.90
2023-04-30T00:59:59.116Z,18.90
2023-04-30T01:02:27.121Z,18.90
2023-04-30T01:04:55.244Z,18.90
2023-04-30T01:07:23.117Z,18.90
2023-04-30T01:09:50.983Z,18.90
2023-04-30T01:12:22.601Z,18.90
2023-04-30T01:14:55.472Z,18.90
2023-04-30T01:17:28.191Z,18.90
2023-04-30T01:19:56.244Z,18.90
2023-04-30T01:22:31.916Z,18.90
2023-04-30T01:25:28.923Z,18.90
2023-04-30T01:28:07.753Z,18.90
2023-04-30T01:30:36.466Z,18.90
2023-04-30T01:33:04.786Z,18.90
2023-04-30T01:35:56.345Z,18.90
2023-04-30T01:38:29.838Z,18.90
2023-04-30T01:41:02.580Z,18.90
2023-04-30T01:43:35.278Z,18.90
2023-04-30T01:46:09.210Z,18.90
2023-04-30T01:48:41.487Z,18.90
2023-04-30T01:51:10.758Z,18.90
2023-04-30T01:53:41.940Z,18.90
2023-04-30T01:56:12.143Z,18.90
2023-04-30T01:58:41.433Z,18.90
2023-04-30T02:01:09.450Z,18.90
2023-04-30T02:03:37.427Z,18.90
2023-04-30T02:06:05.667Z,18.90
2023-04-30T02:08:33.568Z,18.90
2023-04-30T02:11:01.461Z,18.90
2023-04-30T02:13:29.440Z,18.90
2023-04-30T02:15:58.813Z,18.90
2023-04-30T02:18:26.723Z,18.90
2023-04-30T02:20:54.621Z,18.90
2023-04-30T02:23:22.487Z,18.90
2023-04-30T02:25:50.366Z,18.90
2023-04-30T02:28:18.318Z,18.90
2023-04-30T02:30:46.286Z,18.90
2023-04-30T02:33:15.906Z,18.90
2023-04-30T02:35:43.953Z,18.90
2023-04-30T02:38:11.792Z,18.90
2023-04-30T02:40:39.689Z,18.90
2023-04-30T02:43:07.547Z,18.90
2023-04-30T02:45:35.532Z,18.90
2023-04-30T02:48:03.535Z,18.90
2023-04-30T02:50:32.884Z,18.90
2023-04-30T02:53:00.966Z,18.90
2023-04-30T02:55:28.828Z,18.90
2023-04-30T02:57:56.918Z,18.90
2023-04-30T03:00:25.000Z,18.90
2023-04-30T03:02:53.037Z,18.90
2023-04-30T03:05:21.072Z,18.90
2023-04-30T03:07:50.303Z,18.90
2023-04-30T03:10:19.090Z,18.90
2023-04-30T03:12:47.039Z,18.90
2023-04-30T03:15:15.643Z,18.90
2023-04-30T03:17:45.918Z,18.90
2023-04-30T03:20:14.685Z,18.90
2023-04-30T03:22:42.745Z,18.90
2023-04-30T03:25:13.005Z,18.90
2023-04-30T03:27:41.357Z,18.90
2023-04-30T03:30:10.035Z,18.90
2023-04-30T03:32:38.888Z,18.90
2023-04-30T03:35:07.826Z,18.90
2023-04-30T03:37:35.813Z,18.90
2023-04-30T03:40:04.812Z,18.90
2023-04-30T03:42:34.110Z,18.90
2023-04-30T03:45:02.056Z,18.90
2023-04-30T03:47:29.999Z,18.90
2023-04-30T03:49:58.027Z,18.90
2023-04-30T03:52:26.525Z,18.90
2023-04-30T03:54:54.794Z,18.90
2023-04-30T03:57:22.897Z,18.90
2023-04-30T03:59:52.426Z,18.90
2023-04-30T04:02:21.454Z,18.90
2023-04-30T04:04:49.799Z,18.90
2023-04-30T04:07:18.152Z,18.90
2023-04-30T04:09:47.253Z,18.90
2023-04-30T04:12:15.194Z,18.90
2023-04-30T04:14:43.178Z,18.90
2023-04-30T04:17:12.761Z,18.90
2023-04-30T04:19:40.827Z,18.90
2023-04-30T04:22:08.737Z,18.90
2023-04-30T04:24:36.970Z,18.90
2023-04-30T04:27:05.681Z,18.90
2023-04-30T04:29:34.612Z,18.90
2023-04-30T04:32:04.579Z,18.90
2023-04-30T04:34:34.070Z,18.90
2023-04-30T04:37:01.985Z,18.80
2023-04-30T04:39:29.900Z,18.90
2023-04-30T04:41:58.146Z,18.90
2023-04-30T04:44:27.205Z,18.80
2023-04-30T04:46:56.645Z,18.90
2023-04-30T04:49:24.666Z,18.90
2023-04-30T04:51:54.600Z,18.80
2023-04-30T04:54:22.512Z,18.80
2023-04-30T04:56:51.563Z,18.90
2023-04-30T04:59:19.534Z,18.80
2023-04-30T05:01:48.307Z,18.80
2023-04-30T05:04:16.272Z,18.80
2023-04-30T05:06:46.813Z,18.80
2023-04-30T05:09:16.352Z,18.80
2023-04-30T05:11:46.173Z,18.80
2023-04-30T05:14:14.049Z,18.80
2023-04-30T05:16:42.021Z,18.80
2023-04-30T05:19:10.058Z,18.90
2023-04-30T05:21:37.934Z,18.80
2023-04-30T05:24:06.414Z,18.80
2023-04-30T05:26:35.666Z,18.80
2023-04-30T05:29:03.882Z,18.80
2023-04-30T05:31:32.460Z,18.90
2023-04-30T05:34:00.730Z,18.90
2023-04-30T05:36:29.144Z,18.80
2023-04-30T05:38:57.068Z,18.80
2023-04-30T05:41:25.000Z,18.80
2023-04-30T05:43:54.216Z,18.80
2023-04-30T05:46:22.231Z,18.80
2023-04-30T05:48:50.217Z,18.80
2023-04-30T05:51:18.137Z,18.80
2023-04-30T05:53:46.012Z,18.80
2023-04-30T05:56:14.308Z,18.80
2023-04-30T05:58:42.224Z,18.80
2023-04-30T06:01:12.325Z,18.80
2023-04-30T06:03:40.253Z,18.80
2023-04-30T06:06:08.437Z,18.80
2023-04-30T06:08:36.334Z,18.80
2023-04-30T06:11:05.153Z,18.80
2023-04-30T06:13:33.194Z,18.80
2023-04-30T06:16:01.050Z,18.90
2023-04-30T06:18:30.269Z,18.80
2023-04-30T06:20:58.140Z,18.80
2023-04-30T06:23:26.013Z,18.80
2023-04-30T06:25:53.861Z,18.90
2023-04-30T06:28:21.737Z,18.80
2023-04-30T06:30:49.597Z,18.90
2023-04-30T06:33:17.504Z,18.80
2023-04-30T06:35:46.926Z,18.80
2023-04-30T06:38:14.787Z,18.80
2023-04-30T06:40:42.638Z,18.80
2023-04-30T06:43:10.594Z,18.80
2023-04-30T06:45:38.598Z,18.90
2023-04-30T06:48:06.704Z,18.80
2023-04-30T06:50:34.722Z,18.80
2023-04-30T06:53:03.984Z,18.80
2023-04-30T06:55:31.895Z,18.80
2023-04-30T06:57:59.883Z,18.90
2023-04-30T07:00:28.392Z,18.80
2023-04-30T07:02:57.252Z,18.80
2023-04-30T07:05:25.226Z,18.80
2023-04-30T07:07:53.369Z,18.80
2023-04-30T07:10:22.747Z,18.80
2023-04-30T07:12:50.648Z,18.80
2023-04-30T07:15:18.739Z,18.90
2023-04-30T07:17:46.670Z,18.80
2023-04-30T07:20:15.637Z,18.80
2023-04-30T07:22:44.516Z,18.90
2023-04-30T07:25:12.490Z,18.90
2023-04-30T07:27:41.783Z,18.90
2023-04-30T07:30:10.523Z,18.90
2023-04-30T07:32:39.828Z,18.90
2023-04-30T07:35:08.060Z,18.90
2023-04-30T07:37:36.192Z,18.90
2023-04-30T07:40:04.607Z,18.90
2023-04-30T07:42:32.482Z,18.90
2023-04-30T07:45:04.278Z,18.90
2023-04-30T07:47:32.169Z,18.90
2023-04-30T07:50:00.262Z,18.90
2023-04-30T07:52:28.225Z,18.90
2023-04-30T07:54:56.123Z,18.90
2023-04-30T07:57:26.491Z,18.90
2023-04-30T07:59:54.831Z,18.90
2023-04-30T08:02:24.471Z,18.90
2023-04-30T08:04:52.482Z,18.90
2023-04-30T08:07:21.062Z,18.90
2023-04-30T08:09:49.007Z,18.90
2023-04-30T08:12:18.114Z,18.90
2023-04-30T08:14:46.018Z,18.90
2023-04-30T08:17:13.895Z,18.90
2023-04-30T08:19:43.108Z,18.90
2023-04-30T08:22:11.156Z,18.90
2023-04-30T08:24:39.025Z,18.90
2023-04-30T08:27:06.939Z,18.90
2023-04-30T08:29:34.802Z,18.90
2023-04-30T08:32:03.713Z,19.00
2023-04-30T08:34:31.645Z,19.00
2023-04-30T08:37:01.294Z,19.00
2023-04-30T08:39:29.165Z,19.00
2023-04-30T08:41:57.787Z,19.00
2023-04-30T08:44:25.754Z,19.00
2023-04-30T08:46:54.779Z,19.00
2023-04-30T08:49:24.696Z,19.00
2023-04-30T08:51:53.045Z,19.00
2023-04-30T08:54:22.249Z,19.00
2023-04-30T08:56:50.180Z,19.00
2023-04-30T08:59:18.101Z,19.00
2023-04-30T09:01:46.150Z,19.00
2023-04-30T09:04:14.255Z,19.00
2023-04-30T09:06:42.328Z,19.00
2023-04-30T09:09:11.471Z,19.10
2023-04-30T09:11:41.011Z,19.10
2023-04-30T09:14:08.922Z,19.10
2023-04-30T09:16:47.103Z,19.10
2023-04-30T09:19:25.359Z,19.10
2023-04-30T09:21:53.336Z,19.10
2023-04-30T09:24:21.286Z,19.10
2023-04-30T09:26:51.734Z,19.10
2023-04-30T09:29:19.652Z,19.10
2023-04-30T09:31:48.156Z,19.10
2023-04-30T09:34:16.286Z,19.10
2023-04-30T09:36:54.704Z,19.10
2023-04-30T09:39:22.672Z,19.00
2023-04-30T09:41:52.917Z,19.10
2023-04-30T09:44:39.140Z,19.10
2023-04-30T09:47:11.602Z,19.10
2023-04-30T09:49:39.575Z,19.10
2023-04-30T09:52:07.543Z,19.10
2023-04-30T09:54:35.428Z,19.10
2023-04-30T09:57:04.736Z,19.10
2023-04-30T09:59:35.136Z,19.10
2023-04-30T10:02:03.680Z,19.10
2023-04-30T10:04:33.308Z,19.10
2023-04-30T10:07:02.180Z,19.10
2023-04-30T10:09:31.140Z,19.10
2023-04-30T10:11:59.066Z,19.10
2023-04-30T10:14:28.291Z,19.10
2023-04-30T10:16:57.939Z,19.10
2023-04-30T10:19:26.960Z,19.10
2023-04-30T10:21:54.922Z,19.10
2023-04-30T10:24:22.892Z,19.10
2023-04-30T10:26:50.974Z,19.20
2023-04-30T10:29:19.226Z,19.10
2023-04-30T10:31:49.870Z,19.20
2023-04-30T10:34:29.818Z,19.20
2023-04-30T10:37:00.051Z,19.20
2023-04-30T10:39:28.856Z,19.10
2023-04-30T10:42:03.500Z,19.10
2023-04-30T10:44:33.421Z,19.10
2023-04-30T10:47:02.712Z,19.10
2023-04-30T10:49:30.636Z,19.20
2023-04-30T10:52:00.625Z,19.10
2023-04-30T10:54:29.749Z,19.10
2023-04-30T10:57:11.510Z,19.10
2023-04-30T10:59:39.621Z,19.10
2023-04-30T11:02:09.590Z,19.10
2023-04-30T11:04:38.183Z,19.10
2023-04-30T11:07:10.239Z,19.10
2023-04-30T11:09:40.303Z,19.10
2023-04-30T11:12:13.315Z,19.10
2023-04-30T11:14:42.671Z,19.10
2023-04-30T11:17:12.756Z,19.20
2023-04-30T11:20:00.594Z,19.20
2023-04-30T11:22:30.040Z,19.10
2023-04-30T11:25:05.851Z,19.20
2023-04-30T11:27:34.414Z,19.20
2023-04-30T11:30:02.898Z,19.10
2023-04-30T11:32:35.471Z,19.20
2023-04-30T11:35:03.974Z,19.10
2023-04-30T11:37:32.981Z,19.20
2023-04-30T11:40:02.216Z,19.20
2023-04-30T11:42:31.222Z,19.20
2023-04-30T11:45:04.939Z,19.10
2023-04-30T11:47:44.275Z,19.10
2023-04-30T11:50:13.013Z,19.10
2023-04-30T11:52:41.138Z,19.20
2023-04-30T11:55:16.569Z,19.20
2023-04-30T11:57:44.983Z,19.20
2023-04-30T12:00:13.874Z,19.10
2023-04-30T12:02:43.609Z,19.20
2023-04-30T12:05:17.086Z,19.10
2023-04-30T12:07:48.845Z,19.10
2023-04-30T12:10:16.782Z,19.10
2023-04-30T12:12:45.751Z,19.20
2023-04-30T12:15:15.572Z,19.10
2023-04-30T12:17:44.893Z,19.10
2023-04-30T12:20:14.495Z,19.10
2023-04-30T12:22:42.491Z,19.20
2023-04-30T12:25:13.909Z,19.20
2023-04-30T12:27:42.884Z,19.10
2023-04-30T12:30:11.260Z,19.20
2023-04-30T12:32:41.136Z,19.20
2023-04-30T12:35:11.058Z,19.20
2023-04-30T12:37:43.138Z,19.20
2023-04-30T12:40:11.770Z,19.20
2023-04-30T12:42:39.661Z,19.20
2023-04-30T12:45:08.987Z,19.20
2023-04-30T12:47:40.706Z,19.20
2023-04-30T12:50:12.381Z,19.20
2023-04-30T12:52:40.686Z,19.10
2023-04-30T12:55:21.690Z,19.20
2023-04-30T12:58:05.869Z,19.20
2023-04-30T13:00:45.101Z,19.20
2023-04-30T13:03:13.303Z,19.20
2023-04-30T13:05:43.029Z,19.20
2023-04-30T13:08:10.982Z,19.20
2023-04-30T13:10:39.098Z,19.20
2023-04-30T13:13:07.172Z,19.20
2023-04-30T13:15:35.226Z,19.20
2023-04-30T13:18:03.733Z,19.20
2023-04-30T13:20:31.778Z,19.20
2023-04-30T13:23:01.087Z,19.20
2023-04-30T13:25:29.057Z,19.20
2023-04-30T13:27:57.655Z,19.20
2023-04-30T13:30:25.722Z,19.20
2023-04-30T13:32:54.244Z,19.20
2023-04-30T13:35:22.250Z,19.20
2023-04-30T13:37:52.501Z,19.20
2023-04-30T13:40:21.844Z,19.20
2023-04-30T13:42:49.926Z,19.20
2023-04-30T13:45:17.850Z,19.20
2023-04-30T13:47:46.080Z,19.20
2023-04-30T13:50:13.985Z,19.20
2023-04-30T13:52:41.877Z,19.20
2023-04-30T13:55:10.670Z,19.20
2023-04-30T13:57:39.895Z,19.20
2023-04-30T14:00:10.918Z,19.30
2023-04-30T14:02:38.929Z,19.30
2023-04-30T14:05:07.644Z,19.30
2023-04-30T14:07:35.551Z,19.30
2023-04-30T14:10:03.772Z,19.30
2023-04-30T14:12:31.805Z,19.30
2023-04-30T14:15:01.150Z,19.30
2023-04-30T14:17:29.586Z,19.30
2023-04-30T14:19:57.801Z,19.30
2023-04-30T14:22:26.084Z,19.30
2023-04-30T14:24:54.117Z,19.30
2023-04-30T14:27:22.678Z,19.30
2023-04-30T14:29:50.720Z,19.30
2023-04-30T14:32:20.104Z,19.30
2023-04-30T14:34:48.135Z,19.30
2023-04-30T14:37:16.832Z,19.30
2023-04-30T14:39:44.759Z,19.30
2023-04-30T14:42:12.703Z,19.30
2023-04-30T14:44:41.198Z,19.30
2023-04-30T14:47:09.077Z,19.40
2023-04-30T14:49:38.727Z,19.30
2023-04-30T14:52:06.568Z,19.40
2023-04-30T14:54:34.507Z,19.40
2023-04-30T14:57:03.366Z,19.40
2023-04-30T14:59:32.184Z,19.40
2023-04-30T15:02:00.076Z,19.40
2023-04-30T15:04:27.998Z,19.40
2023-04-30T15:06:57.232Z,19.40
2023-04-30T15:09:25.180Z,19.40
2023-04-30T15:11:53.066Z,19.50
2023-04-30T15:14:20.979Z,19.50
2023-04-30T15:16:48.872Z,19.50
2023-04-30T15:19:16.806Z,19.50
2023-04-30T15:21:45.827Z,19.50
2023-04-30T15:24:17.948Z,19.50
2023-04-30T15:26:45.832Z,19.60
2023-04-30T15:29:13.681Z,19.60
2023-04-30T15:31:42.046Z,19.50
2023-04-30T15:34:10.087Z,19.60
2023-04-30T15:36:37.969Z,19.50
2023-04-30T15:39:05.890Z,19.50
2023-04-30T15:41:35.091Z,19.50
2023-04-30T15:44:02.972Z,19.50
2023-04-30T15:46:31.240Z,19.60
2023-04-30T15:48:59.144Z,19.50
2023-04-30T15:51:29.149Z,19.60
2023-04-30T15:53:57.284Z,19.50
2023-04-30T15:56:26.591Z,19.60
2023-04-30T15:58:55.887Z,19.60
2023-04-30T16:01:23.874Z,19.60
2023-04-30T16:03:52.208Z,19.60
2023-04-30T16:06:20.243Z,19.60
2023-04-30T16:08:49.925Z,19.60
2023-04-30T16:11:17.867Z,19.60
2023-04-30T16:13:47.038Z,19.60
2023-04-30T16:16:16.627Z,19.60
2023-04-30T16:18:45.109Z,19.60
2023-04-30T16:21:13.065Z,19.60
2023-04-30T16:23:41.256Z,19.60
2023-04-30T16:26:09.123Z,19.60
2023-04-30T16:28:37.013Z,19.60
2023-04-30T16:31:05.013Z,19.60
2023-04-30T16:33:34.368Z,19.60
2023-04-30T16:36:02.381Z,19.60
2023-04-30T16:38:30.275Z,19.60
2023-04-30T16:40:58.605Z,19.60
2023-04-30T16:43:26.721Z,19.60
2023-04-30T16:45:54.681Z,19.60
2023-04-30T16:48:22.604Z,19.60
2023-04-30T16:50:52.053Z,19.60
2023-04-30T16:53:21.580Z,19.50
2023-04-30T16:55:51.170Z,19.50
2023-04-30T16:58:19.076Z,19.50
2023-04-30T17:00:47.006Z,19.50
2023-04-30T17:03:15.017Z,19.50
2023-04-30T17:05:43.074Z,19.50
2023-04-30T17:08:12.310Z,19.50
2023-04-30T17:10:40.331Z,19.40
2023-04-30T17:13:08.231Z,19.50
2023-04-30T17:15:36.313Z,19.40
2023-04-30T17:18:04.472Z,19.50
2023-04-30T17:20:32.425Z,19.50
2023-04-30T17:23:01.724Z,19.50
2023-04-30T17:25:31.870Z,19.50
2023-04-30T17:28:01.371Z,19.50
2023-04-30T17:30:29.516Z,19.50
2023-04-30T17:32:58.588Z,19.50
2023-04-30T17:35:27.072Z,19.50
2023-04-30T17:37:55.009Z,19.50
2023-04-30T17:40:22.926Z,19.50
2023-04-30T17:42:52.302Z,19.50
2023-04-30T17:45:20.317Z,19.50
2023-04-30T17:47:48.356Z,19.50
2023-04-30T17:50:16.404Z,19.50
2023-04-30T17:52:44.289Z,19.50
2023-04-30T17:55:12.962Z,19.50
2023-04-30T17:57:40.836Z,19.50
2023-04-30T18:00:11.370Z,19.50
2023-04-30T18:02:42.217Z,19.50
2023-04-30T18:05:11.611Z,19.50
2023-04-30T18:07:39.514Z,19.40
2023-04-30T18:10:08.731Z,19.50
2023-04-30T18:12:36.925Z,19.50
2023-04-30T18:15:05.781Z,19.50
2023-04-30T18:17:37.017Z,19.40
2023-04-30T18:20:08.288Z,19.40
2023-04-30T18:22:41.206Z,19.40
2023-04-30T18:25:10.385Z,19.40
2023-04-30T18:27:38.317Z,19.40
2023-04-30T18:30:07.430Z,19.40
2023-04-30T18:32:37.375Z,19.40
2023-04-30T18:35:05.893Z,19.40
2023-04-30T18:37:33.897Z,19.40
2023-04-30T18:40:02.551Z,19.40
2023-04-30T18:42:30.906Z,19.40
2023-04-30T18:44:59.021Z,19.40
2023-04-30T18:47:31.259Z,19.40
2023-04-30T18:50:00.906Z,19.40
2023-04-30T18:52:28.920Z,19.40
2023-04-30T18:54:56.903Z,19.40
2023-04-30T18:57:24.898Z,19.40
2023-04-30T18:59:52.867Z,19.40
2023-04-30T19:02:21.841Z,19.40
2023-04-30T19:04:50.400Z,19.40
2023-04-30T19:07:19.599Z,19.40
2023-04-30T19:09:48.419Z,19.40
2023-04-30T19:12:16.556Z,19.40
2023-04-30T19:14:44.780Z,19.40
2023-04-30T19:17:14.247Z,19.40
2023-04-30T19:19:43.653Z,19.30
2023-04-30T19:22:11.634Z,19.30
2023-04-30T19:24:40.939Z,19.30
2023-04-30T19:27:08.808Z,19.30
2023-04-30T19:29:39.223Z,19.40
2023-04-30T19:32:07.444Z,19.30
2023-04-30T19:34:35.377Z,19.30
2023-04-30T19:37:03.602Z,19.30
2023-04-30T19:39:33.814Z,19.40
2023-04-30T19:42:03.647Z,19.40
2023-04-30T19:44:31.907Z,19.40
2023-04-30T19:47:00.525Z,19.40
2023-04-30T19:49:28.426Z,19.40
2023-04-30T19:51:56.577Z,19.40
2023-04-30T19:54:24.527Z,19.40
2023-04-30T19:56:53.978Z,19.40
2023-04-30T19:59:23.730Z,19.40
2023-04-30T20:01:52.575Z,19.40
2023-04-30T20:04:20.675Z,19.40
2023-04-30T20:06:55.997Z,19.40
2023-04-30T20:09:24.079Z,19.40
2023-04-30T20:11:52.087Z,19.50
2023-04-30T20:14:20.059Z,19.40
2023-04-30T20:16:54.007Z,19.40
2023-04-30T20:19:22.225Z,19.40
2023-04-30T20:21:50.265Z,19.40
2023-04-30T20:24:18.288Z,19.40
2023-04-30T20:26:46.421Z,19.40
2023-04-30T20:29:14.472Z,19.40
2023-04-30T20:31:42.509Z,19.40
2023-04-30T20:34:11.863Z,19.40
2023-04-30T20:36:39.882Z,19.40
2023-04-30T20:39:08.757Z,19.40
2023-04-30T20:41:36.704Z,19.40
2023-04-30T20:44:05.230Z,19.40
2023-04-30T20:46:33.167Z,19.40
2023-04-30T20:49:04.462Z,19.40
2023-04-30T20:51:33.712Z,19.40
2023-04-30T20:54:01.624Z,19.40
2023-04-30T20:56:30.217Z,19.40
2023-04-30T20:58:58.144Z,19.40
2023-04-30T21:01:26.108Z,19.40
2023-04-30T21:03:55.656Z,19.40
2023-04-30T21:06:23.631Z,19.40
2023-04-30T21:08:52.916Z,19.30
2023-04-30T21:11:20.822Z,19.30
2023-04-30T21:13:51.255Z,19.30
2023-04-30T21:16:19.523Z,19.30
2023-04-30T21:18:48.762Z,19.30
2023-04-30T21:21:16.951Z,19.30
2023-04-30T21:23:47.302Z,19.30
2023-04-30T21:26:17.916Z,19.30
2023-04-30T21:28:45.919Z,19.30
2023-04-30T21:31:14.328Z,19.30
2023-04-30T21:33:42.331Z,19.30
2023-04-30T21:36:10.249Z,19.30
2023-04-30T21:38:38.864Z,19.30
2023-04-30T21:41:07.002Z,19.30
2023-04-30T21:43:36.985Z,19.40
2023-04-30T21:46:05.255Z,19.40
2023-04-30T21:48:34.144Z,19.40
2023-04-30T21:51:02.100Z,19.40
2023-04-30T21:53:30.016Z,19.40
2023-04-30T21:55:57.928Z,19.40
2023-04-30T21:58:25.976Z,19.40
2023-04-30T22:00:55.541Z,19.40
2023-04-30T22:03:23.455Z,19.40
2023-04-30T22:05:51.500Z,19.40
2023-04-30T22:08:19.508Z,19.50
2023-04-30T22:10:47.738Z,19.50
2023-04-30T22:13:16.071Z,19.50
2023-04-30T22:15:48.089Z,19.50
2023-04-30T22:18:18.932Z,19.50
2023-04-30T22:20:46.895Z,19.50
2023-04-30T22:23:15.625Z,19.50
2023-04-30T22:25:43.568Z,19.50
2023-04-30T22:28:11.474Z,19.50
2023-04-30T22:30:40.077Z,19.50
2023-04-30T22:33:08.119Z,19.50
2023-04-30T22:35:38.126Z,19.50
2023-04-30T22:38:06.174Z,19.50
2023-04-30T22:40:34.273Z,19.50
2023-04-30T22:43:02.393Z,19.50
2023-04-30T22:45:30.661Z,19.50
2023-04-30T22:48:01.310Z,19.60
2023-04-30T22:50:29.778Z,19.60
2023-04-30T22:52:59.045Z,19.60
2023-04-30T22:55:27.244Z,19.60
2023-04-30T22:57:55.140Z,19.60
2023-04-30T23:00:23.987Z,19.60
2023-04-30T23:02:52.035Z,19.60
2023-04-30T23:05:20.232Z,19.60
2023-04-30T23:07:49.549Z,19.60
2023-04-30T23:10:18.971Z,19.60
2023-04-30T23:12:46.837Z,19.60
2023-04-30T23:15:14.994Z,19.60
2023-04-30T23:17:42.952Z,19.60
2023-04-30T23:20:11.365Z,19.60
2023-04-30T23:22:39.241Z,19.60
2023-04-30T23:25:07.938Z,19.60
2023-04-30T23:27:37.137Z,19.60
2023-04-30T23:30:06.013Z,19.60
2023-04-30T23:32:33.935Z,19.60
2023-04-30T23:35:01.868Z,19.60
2023-04-30T23:37:29.728Z,19.60
2023-04-30T23:39:57.859Z,19.60
2023-04-30T23:42:26.013Z,19.60
2023-04-30T23:44:55.250Z,19.50
2023-04-30T23:47:23.690Z,19.50
2023-04-30T23:49:51.574Z,19.60
2023-04-30T23:52:19.465Z,19.60
2023-04-30T23:54:47.358Z,19.50
2023-04-30T23:57:15.310Z,19.60
2023-04-30T23:59:43.536Z,19.50
